Time;durP1;ratioP1;P1;durP2;ratioP2;P2;SDS_P1;SDS_P2;PMS_P1;PMS_P2;Temp;Humidity;BMP_temperature;BMP_pressure;BME280_temperature;BME280_humidity;BME280_pressure;Samples;Min_cycle;Max_cycle;Signal;HPM_P1;HPM_P2
2021/11/06 05:09:06;;;;;;;11.48;9.48;;;8.50;99.90;;;;;;6024453;23;20027;31
2021/11/06 05:11:32;;;;;;;12.40;9.63;;;8.50;99.90;;;;;;4875939;29;20053;-85
2021/11/06 05:13:59;;;;;;;10.80;9.65;;;8.40;99.90;;;;;;4877357;29;20092;-84
2021/11/06 05:16:26;;;;;;;9.95;9.05;;;8.40;99.90;;;;;;4876487;29;20603;-86
2021/11/06 05:18:54;;;;;;;10.35;8.93;;;8.40;99.90;;;;;;4878438;29;20045;-85
2021/11/06 05:21:21;;;;;;;10.23;9.23;;;8.40;99.90;;;;;;4878179;29;20037;-86
2021/11/06 05:23:47;;;;;;;11.75;9.48;;;8.40;99.90;;;;;;4875191;29;20508;-84
2021/11/06 05:26:13;;;;;;;11.00;9.75;;;8.30;99.90;;;;;;4877017;29;20434;-84
2021/11/06 05:28:39;;;;;;;10.82;9.70;;;8.30;99.90;;;;;;4878346;29;20116;-84
2021/11/06 05:31:05;;;;;;;11.20;8.82;;;8.30;99.90;;;;;;4877699;29;20025;-84
2021/11/06 05:33:31;;;;;;;9.88;8.68;;;8.30;99.90;;;;;;4878550;29;20148;-83
2021/11/06 05:35:56;;;;;;;9.40;8.30;;;8.30;99.90;;;;;;4878599;29;20452;-84
2021/11/06 05:38:22;;;;;;;9.60;8.60;;;8.20;99.90;;;;;;4875690;29;20101;-83
2021/11/06 05:40:48;;;;;;;9.75;8.82;;;8.20;99.90;;;;;;4874099;29;20069;-82
2021/11/06 05:43:13;;;;;;;10.20;9.20;;;8.30;99.90;;;;;;4877165;29;20064;-84
2021/11/06 05:45:39;;;;;;;14.07;9.35;;;8.30;99.90;;;;;;4878432;29;20116;-84
2021/11/06 05:48:05;;;;;;;13.38;10.18;;;8.30;99.90;;;;;;4877282;29;20041;-82
2021/11/06 05:50:30;;;;;;;10.80;9.70;;;8.30;99.90;;;;;;4877425;29;20033;-84
2021/11/06 05:52:56;;;;;;;14.82;11.55;;;8.30;99.90;;;;;;4876435;29;20044;-85
2021/11/06 05:55:22;;;;;;;12.90;9.73;;;8.30;99.90;;;;;;4877891;29;20037;-83
2021/11/06 05:57:47;;;;;;;10.32;8.85;;;8.30;99.90;;;;;;4877300;29;20045;-83
2021/11/06 06:00:19;;;;;;;11.25;9.80;;;8.30;99.90;;;;;;4878167;29;20059;-86
2021/11/06 06:02:46;;;;;;;10.55;9.50;;;8.30;99.90;;;;;;4877885;29;20438;-85
2021/11/06 06:05:13;;;;;;;12.05;9.57;;;8.30;99.90;;;;;;4875613;29;20128;-82
2021/11/06 06:07:39;;;;;;;12.48;10.07;;;8.30;99.90;;;;;;4876040;29;20044;-85
2021/11/06 06:10:08;;;;;;;10.93;9.27;;;8.40;99.90;;;;;;4885146;29;20076;-85
2021/11/06 06:12:34;;;;;;;13.68;9.20;;;8.40;99.90;;;;;;4896383;29;20043;-85
2021/11/06 06:14:59;;;;;;;10.77;9.27;;;8.40;99.90;;;;;;4896511;29;20075;-85
2021/11/06 06:17:25;;;;;;;10.98;9.00;;;8.40;99.90;;;;;;4892002;29;20073;-83
2021/11/06 06:19:51;;;;;;;9.82;8.82;;;8.40;99.90;;;;;;4891628;29;20452;-83
2021/11/06 06:22:16;;;;;;;10.05;9.05;;;8.50;99.90;;;;;;4895898;29;20456;-83
2021/11/06 06:24:42;;;;;;;10.48;8.68;;;8.50;99.90;;;;;;4896540;29;20449;-84
2021/11/06 06:27:08;;;;;;;9.00;8.10;;;8.50;99.90;;;;;;4896399;29;20036;-85
2021/11/06 06:29:34;;;;;;;10.93;8.52;;;8.50;99.90;;;;;;4900573;29;20063;-86
2021/11/06 06:32:00;;;;;;;9.88;8.80;;;8.50;99.90;;;;;;4895351;29;20062;-85
2021/11/06 06:34:25;;;;;;;9.65;7.57;;;8.50;99.90;;;;;;4890081;29;20104;-83
2021/11/06 06:36:51;;;;;;;9.68;8.60;;;8.50;99.90;;;;;;4893877;29;20044;-83
2021/11/06 06:39:17;;;;;;;9.35;8.13;;;8.60;99.90;;;;;;4877330;29;20441;-83
2021/11/06 06:41:43;;;;;;;9.32;8.23;;;8.60;99.90;;;;;;4894625;29;20786;-84
2021/11/06 06:44:09;;;;;;;10.95;8.32;;;8.60;99.90;;;;;;4895630;29;20041;-83
2021/11/06 06:46:35;;;;;;;8.52;7.63;;;8.70;99.90;;;;;;4894633;29;20137;-84
2021/11/06 06:49:00;;;;;;;11.45;8.20;;;8.70;99.90;;;;;;4895936;29;20511;-85
2021/11/06 06:51:26;;;;;;;9.73;8.68;;;8.70;99.90;;;;;;4893439;29;20040;-84
2021/11/06 06:53:52;;;;;;;10.05;7.50;;;8.80;99.90;;;;;;4895978;29;20040;-85
2021/11/06 06:56:17;;;;;;;11.00;7.30;;;8.80;99.90;;;;;;4895445;29;20429;-84
2021/11/06 06:58:43;;;;;;;9.65;7.28;;;8.80;99.90;;;;;;4895310;29;20075;-83
2021/11/06 07:01:09;;;;;;;11.05;7.65;;;8.90;99.90;;;;;;4894977;29;20040;-84
2021/11/06 07:03:35;;;;;;;9.52;8.15;;;9.00;99.90;;;;;;4895115;29;20032;-83
2021/11/06 07:06:01;;;;;;;8.43;7.53;;;9.00;99.90;;;;;;4887725;29;20070;-85
2021/11/06 07:08:27;;;;;;;8.55;7.57;;;9.00;99.90;;;;;;4892312;29;20534;-83
2021/11/06 07:10:52;;;;;;;10.48;7.55;;;9.00;99.90;;;;;;4891143;29;20123;-84
2021/11/06 07:13:21;;;;;;;8.55;7.65;;;9.00;99.90;;;;;;4876445;29;20591;-84
2021/11/06 07:15:48;;;;;;;10.85;7.80;;;9.10;99.90;;;;;;4875793;29;20033;-85
2021/11/06 07:18:14;;;;;;;10.00;7.75;;;9.10;99.90;;;;;;4877152;29;20052;-83
2021/11/06 07:20:40;;;;;;;7.72;6.93;;;9.20;99.90;;;;;;4878860;29;20079;-85
2021/11/06 07:23:06;;;;;;;13.32;8.13;;;9.20;99.90;;;;;;4875596;29;20068;-85
2021/11/06 07:25:32;;;;;;;10.23;7.28;;;9.20;99.90;;;;;;4875981;29;20103;-84
2021/11/06 07:27:58;;;;;;;12.27;7.45;;;9.30;99.90;;;;;;4875429;29;20041;-84
2021/11/06 07:30:24;;;;;;;8.93;7.10;;;9.30;99.90;;;;;;4874349;29;20045;-84
2021/11/06 07:32:50;;;;;;;8.15;6.45;;;9.30;99.90;;;;;;4882460;29;20044;-86
2021/11/06 07:35:17;;;;;;;11.55;6.88;;;9.30;99.90;;;;;;4875833;29;20085;-84
2021/11/06 07:37:43;;;;;;;12.05;6.90;;;9.40;99.90;;;;;;4873628;29;20450;-85
2021/11/06 07:40:11;;;;;;;12.80;7.82;;;9.50;99.90;;;;;;4877146;29;20126;-82
2021/11/06 07:42:39;;;;;;;8.93;6.75;;;9.50;99.90;;;;;;4853891;29;20052;-85
2021/11/06 07:45:07;;;;;;;8.25;6.40;;;9.60;99.90;;;;;;4856766;29;20124;-84
2021/11/06 07:47:32;;;;;;;8.25;6.25;;;9.60;99.90;;;;;;4878052;29;20044;-83
2021/11/06 07:49:58;;;;;;;8.52;5.95;;;9.70;99.90;;;;;;4874569;29;20404;-83
2021/11/06 07:52:24;;;;;;;8.73;6.03;;;9.70;99.90;;;;;;4874742;29;20169;-83
2021/11/06 07:54:50;;;;;;;12.93;6.85;;;9.80;99.90;;;;;;4875089;29;20477;-83
2021/11/06 07:57:16;;;;;;;9.45;6.70;;;9.80;99.90;;;;;;4873400;29;20053;-85
2021/11/06 07:59:41;;;;;;;16.00;6.80;;;9.80;99.90;;;;;;4875205;29;20382;-85
2021/11/06 08:02:08;;;;;;;11.75;6.90;;;9.90;99.90;;;;;;4875075;29;20044;-83
2021/11/06 08:04:34;;;;;;;10.32;6.82;;;9.90;99.90;;;;;;4875735;29;20033;-85
2021/11/06 08:06:59;;;;;;;10.05;6.75;;;10.00;99.90;;;;;;4874834;29;20060;-84
2021/11/06 08:09:25;;;;;;;9.23;6.10;;;10.00;99.90;;;;;;4876827;29;20041;-84
2021/11/06 08:11:51;;;;;;;7.90;6.18;;;10.00;99.90;;;;;;4894870;29;20080;-84
2021/11/06 08:14:17;;;;;;;7.88;6.00;;;10.10;99.90;;;;;;4896235;29;20033;-85
2021/11/06 08:16:49;;;;;;;9.85;5.75;;;10.10;99.90;;;;;;4895856;29;20039;-83
2021/11/06 08:19:14;;;;;;;9.07;6.25;;;10.10;99.90;;;;;;4896981;29;20051;-84
2021/11/06 08:21:40;;;;;;;8.93;6.25;;;10.10;99.90;;;;;;4892091;29;20409;-83
2021/11/06 08:24:06;;;;;;;6.93;5.45;;;10.20;99.90;;;;;;4898385;29;20096;-84
2021/11/06 08:26:32;;;;;;;8.00;5.13;;;10.20;99.90;;;;;;4878014;29;20046;-83
2021/11/06 08:28:57;;;;;;;9.75;5.60;;;10.30;99.90;;;;;;4898578;29;20039;-82
2021/11/06 08:31:23;;;;;;;7.60;4.85;;;10.30;99.90;;;;;;4904823;29;20064;-83
2021/11/06 08:33:49;;;;;;;8.07;4.85;;;10.40;99.90;;;;;;4898762;29;20404;-84
2021/11/06 08:36:15;;;;;;;8.60;5.07;;;10.50;99.90;;;;;;4897982;29;20076;-83
2021/11/06 08:38:42;;;;;;;8.73;4.90;;;10.60;99.90;;;;;;4897597;29;20060;-84
2021/11/06 08:41:08;;;;;;;10.30;4.90;;;10.60;99.90;;;;;;4897729;29;20495;-82
2021/11/06 08:43:34;;;;;;;9.95;4.43;;;10.60;99.90;;;;;;4894993;29;20037;-83
2021/11/06 08:46:01;;;;;;;8.23;5.70;;;10.70;99.90;;;;;;4898144;29;20119;-83
2021/11/06 08:48:27;;;;;;;8.15;5.00;;;10.50;99.90;;;;;;4896771;29;20040;-83
2021/11/06 08:50:53;;;;;;;8.23;4.60;;;10.70;99.90;;;;;;4893646;29;20041;-85
2021/11/06 08:53:19;;;;;;;6.68;4.50;;;10.80;99.90;;;;;;4897070;29;20078;-82
2021/11/06 08:55:45;;;;;;;9.25;4.40;;;10.80;99.90;;;;;;4896709;29;20112;-82
2021/11/06 08:58:11;;;;;;;10.32;4.90;;;11.00;99.90;;;;;;4895530;29;20087;-81
2021/11/06 09:00:48;;;;;;;9.27;4.50;;;11.00;99.90;;;;;;4896017;29;20040;-82
2021/11/06 09:03:17;;;;;;;8.07;4.38;;;11.00;99.90;;;;;;4891574;29;20175;-82
2021/11/06 09:05:50;;;;;;;8.33;4.47;;;11.10;99.90;;;;;;4895730;29;20084;-83
2021/11/06 09:08:26;;;;;;;7.60;4.53;;;11.00;99.90;;;;;;4894234;29;20174;-82
2021/11/06 09:10:55;;;;;;;10.68;5.93;;;11.00;99.90;;;;;;4891372;29;20456;-82
2021/11/06 09:13:22;;;;;;;8.45;4.70;;;11.00;99.90;;;;;;4896683;29;20121;-82
2021/11/06 09:15:48;;;;;;;8.70;4.18;;;11.00;99.90;;;;;;4895995;29;20063;-85
2021/11/06 09:18:14;;;;;;;10.00;4.35;;;11.00;99.90;;;;;;4896922;29;20080;-85
2021/11/06 09:20:39;;;;;;;9.20;4.53;;;10.90;99.90;;;;;;4899683;29;20047;-83
2021/11/06 09:23:05;;;;;;;7.10;4.07;;;10.90;99.90;;;;;;4896584;29;20051;-82
2021/11/06 09:25:31;;;;;;;7.28;4.78;;;10.90;99.90;;;;;;4895750;29;20505;-82
2021/11/06 09:27:57;;;;;;;7.55;4.03;;;10.90;99.90;;;;;;4896456;29;20040;-83
2021/11/06 09:30:22;;;;;;;6.85;4.22;;;10.90;99.90;;;;;;4897359;29;20084;-84
2021/11/06 09:32:48;;;;;;;13.18;5.07;;;10.90;99.90;;;;;;4897647;29;20099;-83
2021/11/06 09:35:14;;;;;;;8.68;5.68;;;10.90;99.90;;;;;;4892458;29;20044;-82
2021/11/06 09:37:40;;;;;;;10.23;4.80;;;10.80;99.90;;;;;;4895420;29;20085;-82
2021/11/06 09:40:08;;;;;;;8.13;4.63;;;10.70;99.90;;;;;;4888920;29;20043;-82
2021/11/06 09:42:35;;;;;;;13.13;4.75;;;10.70;99.90;;;;;;4894552;29;20043;-82
2021/11/06 09:45:01;;;;;;;8.23;4.60;;;10.60;99.90;;;;;;4897713;29;20036;-81
2021/11/06 09:47:27;;;;;;;10.02;5.47;;;10.60;99.90;;;;;;4910171;29;20033;-81
2021/11/06 09:49:54;;;;;;;11.48;5.20;;;10.50;99.90;;;;;;4896724;29;20132;-83
2021/11/06 09:52:19;;;;;;;8.88;5.60;;;10.50;99.90;;;;;;4894037;29;20044;-85
2021/11/06 09:54:46;;;;;;;9.45;4.35;;;10.40;99.90;;;;;;4891274;29;20064;-84
2021/11/06 09:57:12;;;;;;;10.38;4.88;;;10.50;99.90;;;;;;4896205;29;20045;-81
2021/11/06 09:59:38;;;;;;;8.15;5.32;;;10.50;99.90;;;;;;4894830;29;20108;-80
2021/11/06 10:02:04;;;;;;;9.63;5.22;;;10.40;99.90;;;;;;4894857;29;20517;-82
2021/11/06 10:04:30;;;;;;;8.40;5.50;;;10.40;99.90;;;;;;4889426;29;20065;-82
2021/11/06 10:07:29;;;;;;;7.93;4.65;;;10.40;99.90;;;;;;4902399;29;20032;-81
2021/11/06 10:10:03;;;;;;;6.63;4.88;;;10.40;99.90;;;;;;4889487;29;20052;-83
2021/11/06 10:12:50;;;;;;;7.47;4.57;;;10.40;99.90;;;;;;4895927;29;20044;-82
2021/11/06 10:15:18;;;;;;;8.73;5.25;;;10.40;99.90;;;;;;4894616;29;20040;-84
2021/11/06 10:17:44;;;;;;;7.93;5.68;;;10.40;99.90;;;;;;4893734;29;20048;-86
2021/11/06 10:20:28;;;;;;;8.57;5.65;;;10.40;99.90;;;;;;4899956;29;20032;-83
2021/11/06 10:22:56;;;;;;;9.13;6.20;;;10.40;99.90;;;;;;4895069;29;20040;-83
2021/11/06 10:25:23;;;;;;;8.90;5.90;;;10.40;99.90;;;;;;4890383;29;20037;-81
2021/11/06 10:28:00;;;;;;;9.00;5.60;;;10.30;99.90;;;;;;4893081;29;20453;-82
2021/11/06 10:30:35;;;;;;;9.75;5.95;;;10.30;99.90;;;;;;4897769;29;20036;-82
2021/11/06 10:33:16;;;;;;;10.38;6.15;;;10.30;99.90;;;;;;4894206;29;20393;-86
2021/11/06 10:35:53;;;;;;;9.73;6.80;;;10.20;99.90;;;;;;4892649;29;20120;-85
2021/11/06 10:38:27;;;;;;;9.13;6.53;;;10.20;99.90;;;;;;4891938;29;20097;-83
2021/11/06 10:40:55;;;;;;;13.85;6.82;;;10.20;99.90;;;;;;4891389;29;20060;-85
2021/11/06 10:43:23;;;;;;;10.88;6.88;;;10.20;99.90;;;;;;4893742;29;20036;-83
2021/11/06 10:45:54;;;;;;;11.63;7.20;;;10.20;99.90;;;;;;4890174;29;20464;-85
2021/11/06 10:48:22;;;;;;;9.27;7.07;;;10.20;99.90;;;;;;4892894;29;20401;-83
2021/11/06 10:51:03;;;;;;;10.73;7.70;;;10.10;99.90;;;;;;4889370;29;20033;-85
2021/11/06 10:53:32;;;;;;;12.15;8.00;;;10.10;99.90;;;;;;4894638;29;20508;-84
2021/11/06 10:56:00;;;;;;;13.75;7.60;;;10.10;99.90;;;;;;4894360;29;20037;-84
2021/11/06 10:58:31;;;;;;;11.05;8.15;;;10.10;99.90;;;;;;4892500;29;20067;-83
2021/11/06 11:01:00;;;;;;;8.60;6.80;;;10.00;99.90;;;;;;4903788;29;20041;-83
2021/11/06 11:03:29;;;;;;;14.40;8.55;;;10.10;99.90;;;;;;4897237;29;20048;-83
2021/11/06 11:05:57;;;;;;;12.43;7.85;;;10.10;99.90;;;;;;4895521;29;20051;-83
2021/11/06 11:08:23;;;;;;;15.10;7.95;;;10.00;99.90;;;;;;4893481;29;20033;-84
2021/11/06 11:10:49;;;;;;;9.50;7.47;;;10.00;99.90;;;;;;4893433;29;20442;-85
2021/11/06 11:13:19;;;;;;;11.95;8.63;;;10.00;99.90;;;;;;4895766;29;20047;-83
2021/11/06 11:15:48;;;;;;;11.73;7.30;;;10.00;99.90;;;;;;4903633;29;20044;-83
2021/11/06 11:18:33;;;;;;;11.13;7.90;;;10.10;99.90;;;;;;4895631;29;20068;-82
2021/11/06 11:21:16;;;;;;;14.85;7.93;;;10.10;99.90;;;;;;4909010;29;20064;-84
2021/11/06 11:24:03;;;;;;;11.13;8.07;;;10.10;99.90;;;;;;4895842;29;20051;-82
2021/11/06 11:26:33;;;;;;;13.32;9.07;;;10.20;99.90;;;;;;4893911;29;20488;-83
2021/11/06 11:29:00;;;;;;;9.25;7.53;;;10.10;99.90;;;;;;4897738;29;20089;-83
2021/11/06 11:31:27;;;;;;;9.20;7.03;;;10.10;99.90;;;;;;4919645;29;20397;-84
2021/11/06 11:33:53;;;;;;;8.23;7.05;;;10.10;99.90;;;;;;4898467;29;20036;-83
2021/11/06 11:36:25;;;;;;;14.18;8.35;;;10.00;99.90;;;;;;4907371;29;20050;-83
2021/11/06 11:38:52;;;;;;;11.00;7.60;;;10.10;99.90;;;;;;4894463;29;20115;-84
2021/11/06 11:41:46;;;;;;;11.40;7.28;;;10.10;99.90;;;;;;4895416;29;20069;-84
2021/11/06 11:44:53;;;;;;;11.55;7.55;;;10.10;99.90;;;;;;4895316;29;20045;-84
2021/11/06 11:47:19;;;;;;;12.13;7.80;;;10.10;99.90;;;;;;4904955;29;20122;-85
2021/11/06 11:49:49;;;;;;;10.30;7.38;;;10.20;99.90;;;;;;4905704;29;20512;-84
2021/11/06 11:52:25;;;;;;;;;;;10.20;99.90;;;;;;4899375;29;20072;-82
2021/11/06 11:55:05;;;;;;;11.73;7.40;;;10.20;99.90;;;;;;4898959;29;19911;-83
2021/11/06 11:57:31;;;;;;;;;;;10.20;99.90;;;;;;4898889;29;20084;-82
2021/11/06 11:59:57;;;;;;;10.50;7.35;;;10.10;99.90;;;;;;4899820;29;20002;-83
2021/11/06 12:02:26;;;;;;;9.25;6.70;;;10.20;99.90;;;;;;4898659;29;20120;-83
2021/11/06 12:05:15;;;;;;;11.35;6.95;;;10.20;99.90;;;;;;4898008;29;20515;-83
2021/11/06 12:07:41;;;;;;;13.63;7.68;;;10.20;99.90;;;;;;4847663;29;20046;-84
2021/11/06 12:10:25;;;;;;;7.97;6.72;;;10.30;99.90;;;;;;4840866;29;20141;-84
2021/11/06 12:12:52;;;;;;;10.60;6.22;;;10.40;99.90;;;;;;4838971;29;20659;-83
2021/11/06 12:15:18;;;;;;;9.18;6.10;;;10.40;99.90;;;;;;4825428;29;20048;-84
2021/11/06 12:17:43;;;;;;;7.63;6.28;;;10.40;99.90;;;;;;4826685;29;20058;-83
2021/11/06 12:20:27;;;;;;;9.80;5.70;;;10.40;99.90;;;;;;4836832;29;20495;-86
2021/11/06 12:22:53;;;;;;;9.18;6.10;;;10.50;99.90;;;;;;4838936;29;20048;-83
2021/11/06 12:25:21;;;;;;;8.82;5.88;;;10.40;99.90;;;;;;4841960;29;20116;-83
2021/11/06 12:27:58;;;;;;;7.05;4.97;;;10.50;99.90;;;;;;4832587;29;20054;-84
2021/11/06 12:30:26;;;;;;;9.80;6.13;;;10.50;99.90;;;;;;4840712;29;20044;-83
2021/11/06 12:32:52;;;;;;;10.40;6.05;;;10.50;99.90;;;;;;4841298;29;20133;-84
2021/11/06 12:35:21;;;;;;;13.23;6.57;;;10.50;99.90;;;;;;4840411;29;20582;-84
2021/11/06 12:37:49;;;;;;;9.00;5.82;;;10.60;99.90;;;;;;4832222;29;20050;-82
2021/11/06 12:40:15;;;;;;;14.80;6.43;;;10.60;99.90;;;;;;4837066;29;20038;-84
2021/11/06 12:42:42;;;;;;;7.57;5.10;;;10.60;99.90;;;;;;4837488;29;20122;-83
2021/11/06 12:45:12;;;;;;;10.38;5.95;;;10.60;99.90;;;;;;4870434;29;20049;-84
2021/11/06 12:47:58;;;;;;;9.77;5.65;;;10.60;99.90;;;;;;4895331;29;20109;-82
2021/11/06 12:50:24;;;;;;;8.35;5.13;;;10.70;99.90;;;;;;4896593;29;20080;-83
2021/11/06 12:52:52;;;;;;;8.98;5.30;;;10.70;99.90;;;;;;4895463;29;20056;-84
2021/11/06 12:55:20;;;;;;;7.80;5.07;;;10.80;99.90;;;;;;4894969;29;20064;-84
2021/11/06 12:57:46;;;;;;;10.23;5.78;;;10.80;99.90;;;;;;4895128;29;20051;-84
2021/11/06 13:00:24;;;;;;;11.63;5.50;;;10.80;99.90;;;;;;4896187;29;20040;-82
2021/11/06 13:02:55;;;;;;;8.75;5.20;;;10.80;99.90;;;;;;4896096;29;20610;-84
2021/11/06 13:05:23;;;;;;;8.43;5.35;;;10.80;99.90;;;;;;4892998;29;20064;-84
2021/11/06 13:07:50;;;;;;;9.73;5.43;;;10.80;99.90;;;;;;4891184;29;21780;-85
2021/11/06 13:10:27;;;;;;;11.45;4.80;;;10.90;99.90;;;;;;4894581;29;20508;-84
2021/11/06 13:13:08;;;;;;;8.10;5.00;;;10.90;99.90;;;;;;4894205;29;20028;-84
2021/11/06 13:15:43;;;;;;;7.10;4.50;;;10.90;99.90;;;;;;4891460;29;20520;-85
2021/11/06 13:18:11;;;;;;;6.93;5.00;;;10.90;99.90;;;;;;4894365;29;20087;-83
2021/11/06 13:20:37;;;;;;;7.47;4.63;;;10.90;99.90;;;;;;4885239;29;20029;-84
2021/11/06 13:23:04;;;;;;;7.78;3.95;;;10.90;99.90;;;;;;4890088;29;20040;-84
2021/11/06 13:25:36;;;;;;;7.75;4.40;;;10.90;99.90;;;;;;4893955;29;20513;-84
2021/11/06 13:28:14;;;;;;;6.55;4.05;;;10.90;99.90;;;;;;4894692;29;20047;-84
2021/11/06 13:30:47;;;;;;;7.57;4.40;;;10.80;99.90;;;;;;4896494;29;20033;-83
2021/11/06 13:33:19;;;;;;;8.43;3.92;;;10.80;99.90;;;;;;4894884;29;20041;-84
2021/11/06 13:35:44;;;;;;;10.00;4.70;;;10.80;99.90;;;;;;4885837;29;20461;-84
2021/11/06 13:38:29;;;;;;;11.60;6.03;;;10.80;99.90;;;;;;4896163;29;20086;-84
2021/11/06 13:41:09;;;;;;;8.40;4.38;;;10.80;99.90;;;;;;4894876;29;20040;-83
2021/11/06 13:43:39;;;;;;;6.07;3.40;;;10.80;99.90;;;;;;4893300;29;20438;-82
2021/11/06 13:46:16;;;;;;;5.85;3.90;;;10.80;99.90;;;;;;4891086;29;20500;-82
2021/11/06 13:48:52;;;;;;;8.82;4.63;;;10.80;99.90;;;;;;4894142;29;20526;-84
2021/11/06 13:51:22;;;;;;;7.60;3.80;;;10.80;99.90;;;;;;4894582;29;20430;-82
2021/11/06 13:53:58;;;;;;;8.10;3.83;;;10.80;99.90;;;;;;4890709;29;20056;-85
2021/11/06 13:56:26;;;;;;;7.18;3.65;;;10.70;99.90;;;;;;4878976;29;20033;-84
2021/11/06 13:58:56;;;;;;;6.20;3.30;;;10.70;99.90;;;;;;4894716;29;20052;-82
2021/11/06 14:01:24;;;;;;;;;;;10.70;99.90;;;;;;4895829;29;20029;-82
2021/11/06 14:03:50;;;;;;;8.63;4.13;;;10.80;99.90;;;;;;4909367;29;20378;-83
2021/11/06 14:06:16;;;;;;;8.00;4.07;;;10.70;99.90;;;;;;4894232;29;20037;-84
2021/11/06 14:08:42;;;;;;;8.35;4.80;;;10.80;99.90;;;;;;4895027;29;20048;-84
2021/11/06 14:11:08;;;;;;;8.40;4.38;;;10.80;99.90;;;;;;4894372;29;20052;-84
2021/11/06 14:13:35;;;;;;;7.28;4.40;;;10.80;99.90;;;;;;4895916;29;20052;-84
2021/11/06 14:16:16;;;;;;;8.05;4.35;;;10.80;99.90;;;;;;4890324;29;20032;-84
2021/11/06 14:18:45;;;;;;;11.18;3.83;;;10.80;99.90;;;;;;4905663;29;20049;-84
2021/11/06 14:21:17;;;;;;;5.82;3.55;;;10.80;99.90;;;;;;4894431;29;20393;-84
2021/11/06 14:23:43;;;;;;;7.47;4.30;;;10.80;99.90;;;;;;4897922;29;20036;-84
2021/11/06 14:26:24;;;;;;;6.82;3.85;;;10.80;99.90;;;;;;4894234;29;20104;-84
2021/11/06 14:28:50;;;;;;;8.35;4.25;;;10.80;99.90;;;;;;4891440;29;20404;-84
2021/11/06 14:31:28;;;;;;;8.27;4.13;;;10.80;99.90;;;;;;4887584;29;20036;-83
2021/11/06 14:33:53;;;;;;;5.82;3.58;;;10.80;99.90;;;;;;4881937;29;20044;-84
2021/11/06 14:36:21;;;;;;;12.95;5.22;;;10.80;99.90;;;;;;4893842;29;20404;-83
2021/11/06 14:38:48;;;;;;;10.20;5.82;;;10.80;99.90;;;;;;4893345;29;20037;-84
2021/11/06 14:41:14;;;;;;;10.38;5.53;;;10.80;99.90;;;;;;4891114;29;20044;-83
2021/11/06 14:44:06;;;;;;;9.98;5.85;;;10.80;99.90;;;;;;4894572;29;20037;-83
2021/11/06 14:46:49;;;;;;;10.02;5.03;;;10.80;99.90;;;;;;4886742;29;20055;-84
2021/11/06 14:49:21;;;;;;;9.88;5.32;;;10.80;99.90;;;;;;4888819;29;20052;-83
2021/11/06 14:51:56;;;;;;;7.50;4.40;;;10.80;99.90;;;;;;4894686;29;20051;-83
2021/11/06 14:54:41;;;;;;;7.80;4.10;;;10.80;99.90;;;;;;4892682;29;20076;-84
2021/11/06 14:57:36;;;;;;;7.47;4.22;;;10.80;99.90;;;;;;4891814;29;20047;-83
2021/11/06 15:00:11;;;;;;;11.30;4.60;;;10.80;99.90;;;;;;4891484;29;20052;-84
2021/11/06 15:02:39;;;;;;;9.13;4.40;;;10.70;99.90;;;;;;4886088;29;20041;-83
2021/11/06 15:05:07;;;;;;;10.23;5.40;;;10.80;99.90;;;;;;4886616;29;20495;-84
2021/11/06 15:07:34;;;;;;;8.43;4.47;;;10.80;99.90;;;;;;4893218;29;20047;-84
2021/11/06 15:10:01;;;;;;;8.77;4.68;;;10.80;99.90;;;;;;4891660;29;20049;-83
2021/11/06 15:12:27;;;;;;;7.55;4.25;;;10.80;99.90;;;;;;4884889;29;20075;-85
2021/11/06 15:14:52;;;;;;;6.55;3.95;;;10.80;99.90;;;;;;4893729;29;20064;-84
2021/11/06 15:17:18;;;;;;;7.57;3.65;;;10.80;99.90;;;;;;4892257;29;20398;-85
2021/11/06 15:19:46;;;;;;;6.35;3.67;;;10.80;99.90;;;;;;4896767;29;20044;-84
2021/11/06 15:22:12;;;;;;;9.07;3.70;;;10.70;99.90;;;;;;4891975;29;20813;-84
2021/11/06 15:24:37;;;;;;;8.65;3.28;;;10.70;99.90;;;;;;4895763;29;20045;-84
2021/11/06 15:27:04;;;;;;;6.60;3.53;;;10.70;99.90;;;;;;4894392;29;20568;-84
2021/11/06 15:29:32;;;;;;;6.93;3.72;;;10.80;99.90;;;;;;4896171;29;20079;-83
2021/11/06 15:32:01;;;;;;;6.95;3.75;;;10.80;99.90;;;;;;4895915;29;20109;-82
2021/11/06 15:34:28;;;;;;;6.95;2.97;;;10.70;99.90;;;;;;4900166;29;20570;-83
2021/11/06 15:36:54;;;;;;;6.05;2.80;;;10.70;99.90;;;;;;4895711;29;20501;-84
2021/11/06 15:39:19;;;;;;;6.15;3.15;;;10.70;99.90;;;;;;4894527;29;20036;-84
2021/11/06 15:41:46;;;;;;;8.38;3.55;;;10.80;99.90;;;;;;4897588;29;20048;-84
2021/11/06 15:44:11;;;;;;;6.57;3.05;;;10.80;99.90;;;;;;4895635;29;20115;-84
2021/11/06 15:46:37;;;;;;;7.65;3.08;;;10.70;99.90;;;;;;4893169;29;20120;-82
2021/11/06 15:49:04;;;;;;;5.55;3.28;;;10.70;99.90;;;;;;4895873;29;20067;-83
2021/11/06 15:51:38;;;;;;;7.35;3.03;;;10.70;99.90;;;;;;4896794;29;20037;-85
2021/11/06 15:54:05;;;;;;;4.70;3.03;;;10.70;99.90;;;;;;4896833;29;20044;-83
2021/11/06 15:56:32;;;;;;;5.35;3.05;;;10.70;99.90;;;;;;4897077;29;20132;-84
2021/11/06 15:58:58;;;;;;;4.32;2.40;;;10.70;99.90;;;;;;4896585;29;20040;-84
2021/11/06 16:01:23;;;;;;;7.32;3.58;;;10.70;99.90;;;;;;4895845;29;20044;-83
2021/11/06 16:03:50;;;;;;;7.55;3.40;;;10.70;99.90;;;;;;4896152;29;20408;-84
2021/11/06 16:06:16;;;;;;;6.63;3.10;;;10.70;99.90;;;;;;4896902;29;20037;-84
2021/11/06 16:08:42;;;;;;;6.40;3.47;;;10.70;99.90;;;;;;4881395;29;20084;-84
2021/11/06 16:11:08;;;;;;;5.28;3.08;;;10.70;99.90;;;;;;4898148;29;20535;-83
2021/11/06 16:13:34;;;;;;;7.35;3.20;;;10.70;99.90;;;;;;4895715;29;20378;-83
2021/11/06 16:16:03;;;;;;;7.65;2.92;;;10.70;99.90;;;;;;4895596;29;20048;-84
2021/11/06 16:18:35;;;;;;;7.43;3.33;;;10.70;99.90;;;;;;4887096;29;20044;-84
2021/11/06 16:21:03;;;;;;;4.85;3.42;;;10.70;99.90;;;;;;4895266;29;20036;-85
2021/11/06 16:23:29;;;;;;;6.57;3.47;;;10.60;99.90;;;;;;4892788;29;20488;-83
2021/11/06 16:25:55;;;;;;;6.97;3.20;;;10.70;99.90;;;;;;4874044;29;20159;-85
2021/11/06 16:28:20;;;;;;;5.13;3.25;;;10.70;99.90;;;;;;4878542;29;20389;-84
2021/11/06 16:30:46;;;;;;;7.70;3.90;;;10.60;99.90;;;;;;4895420;29;20044;-84
2021/11/06 16:33:12;;;;;;;8.48;4.13;;;10.70;99.90;;;;;;4891073;29;20152;-84
2021/11/06 16:35:42;;;;;;;9.40;4.13;;;10.60;99.90;;;;;;4890906;29;20180;-84
2021/11/06 16:38:08;;;;;;;9.32;5.28;;;10.60;99.90;;;;;;4894016;29;20132;-83
2021/11/06 16:40:34;;;;;;;9.18;4.32;;;10.60;99.90;;;;;;4895067;29;20091;-83
2021/11/06 16:43:00;;;;;;;9.43;5.07;;;10.60;99.90;;;;;;4884702;29;20048;-84
2021/11/06 16:45:25;;;;;;;7.55;4.75;;;10.60;99.90;;;;;;4887872;29;20037;-83
2021/11/06 16:47:51;;;;;;;7.45;3.65;;;10.60;99.90;;;;;;4894937;29;20847;-85
2021/11/06 16:50:17;;;;;;;10.02;5.10;;;10.60;99.90;;;;;;4895451;29;20036;-84
2021/11/06 16:52:43;;;;;;;10.07;4.63;;;10.60;99.90;;;;;;4893203;29;20041;-84
2021/11/06 16:55:12;;;;;;;9.20;4.88;;;10.60;99.90;;;;;;4894662;29;20373;-84
2021/11/06 16:57:38;;;;;;;9.35;4.60;;;10.60;99.90;;;;;;4895678;29;20127;-83
2021/11/06 17:00:05;;;;;;;8.07;4.95;;;10.60;99.90;;;;;;4896084;29;20119;-85
2021/11/06 17:02:30;;;;;;;9.50;4.70;;;10.60;99.90;;;;;;4890540;29;20049;-85
2021/11/06 17:04:59;;;;;;;8.63;4.50;;;10.50;99.90;;;;;;4893774;29;20088;-83
2021/11/06 17:07:29;;;;;;;8.93;4.80;;;10.60;99.90;;;;;;4887310;29;20041;-84
2021/11/06 17:10:05;;;;;;;9.52;5.38;;;10.50;99.90;;;;;;4894356;29;20051;-85
2021/11/06 17:12:32;;;;;;;7.50;4.40;;;10.50;99.90;;;;;;4895205;29;20052;-84
2021/11/06 17:14:58;;;;;;;8.05;4.90;;;10.50;99.90;;;;;;4895569;29;20077;-84
2021/11/06 17:17:26;;;;;;;12.05;5.15;;;10.50;99.90;;;;;;4879743;29;20056;-84
2021/11/06 17:19:52;;;;;;;8.23;4.63;;;10.50;99.90;;;;;;4897176;29;20067;-85
2021/11/06 17:22:18;;;;;;;8.18;4.30;;;10.50;99.90;;;;;;4887366;29;20134;-84
2021/11/06 17:24:44;;;;;;;8.95;4.45;;;10.50;99.90;;;;;;4893639;29;20128;-82
2021/11/06 17:27:10;;;;;;;9.38;5.18;;;10.50;99.90;;;;;;4895336;29;20045;-83
2021/11/06 17:29:37;;;;;;;7.53;4.10;;;10.50;99.90;;;;;;4895065;29;20043;-84
2021/11/06 17:32:04;;;;;;;8.73;4.18;;;10.40;99.90;;;;;;4893551;29;20060;-84
2021/11/06 17:34:30;;;;;;;10.73;4.57;;;10.50;99.90;;;;;;4894219;29;20040;-84
2021/11/06 17:36:56;;;;;;;7.85;4.38;;;10.40;99.90;;;;;;4894410;29;20060;-85
2021/11/06 17:39:22;;;;;;;6.75;4.18;;;10.40;99.90;;;;;;4893355;29;20132;-85
2021/11/06 17:41:47;;;;;;;7.85;4.18;;;10.40;99.90;;;;;;4895299;29;20124;-84
2021/11/06 17:44:13;;;;;;;7.95;4.03;;;10.40;99.90;;;;;;4879444;29;20033;-84
2021/11/06 17:46:40;;;;;;;7.20;4.63;;;10.40;99.90;;;;;;4891538;29;20092;-85
2021/11/06 17:49:06;;;;;;;7.50;4.57;;;10.30;99.90;;;;;;4887123;29;20559;-85
2021/11/06 17:51:39;;;;;;;9.25;4.47;;;10.30;99.90;;;;;;4894066;29;20051;-84
2021/11/06 17:54:05;;;;;;;9.90;5.00;;;10.30;99.90;;;;;;4895467;29;20044;-84
2021/11/06 17:56:32;;;;;;;9.20;4.82;;;10.30;99.90;;;;;;4894418;29;20071;-85
2021/11/06 17:58:59;;;;;;;10.70;6.05;;;10.30;99.90;;;;;;4889122;29;20084;-85
2021/11/06 18:01:30;;;;;;;10.50;5.35;;;10.30;99.90;;;;;;4894532;29;20513;-83